logo
Search for airport 
image banner adimage banner adimage banner ad
image banner ad

SJDC - Fazenda Vale Verde

Located in Pium, Brazil

ICAO - SJDC, IATA -

Data provided by Airmate  

General information

Coordinates: S9°57'40" W49°45'7"
Elevation is 580 feet MSL.
Magnetic variation is -21.043301593° East
View others Airports in Tocatins

Operational data

Special qualification required
Current time UTC:
Current local time:
Weather at : - ( 0 km )
METAR: KOVL 240716Z AUTO 12010G14KT 10SM SCT100 SCT120 18/09 A2963 RMK AO2 LTG DSNT SW
View NOTAMs / SUP AIP / TFR affecting this airport [VIEW]
Communications frequencies: [VIEW]

Runways:

RWY identifierQFULength (ft)Width (ft)SurfaceLDA (ft)
16328198GRAVEL
34328198GRAVEL

Airport contact information

Address: Pium Brazil

Satellite view of SJDC